createdAt,value
2023-05-06T00:00:19.524Z,64.26
2023-05-06T00:02:48.523Z,64.61
2023-05-06T00:05:16.073Z,64.63
2023-05-06T00:07:43.334Z,64.27
2023-05-06T00:10:10.682Z,64.20
2023-05-06T00:12:38.087Z,64.11
2023-05-06T00:15:06.531Z,64.53
2023-05-06T00:17:33.877Z,64.32
2023-05-06T00:20:02.730Z,64.59
2023-05-06T00:22:30.037Z,64.14
2023-05-06T00:24:57.304Z,64.54
2023-05-06T00:27:24.831Z,63.88
2023-05-06T00:29:52.114Z,64.51
2023-05-06T00:32:19.436Z,65.26
2023-05-06T00:34:46.828Z,65.14
2023-05-06T00:37:15.499Z,65.55
2023-05-06T04:46:51.308Z,71.96
2023-05-06T04:49:19.167Z,73.63
2023-05-06T04:51:46.458Z,74.23
2023-05-06T04:54:13.752Z,73.45
2023-05-06T04:56:41.098Z,73.89
2023-05-06T04:59:08.462Z,73.37
2023-05-06T05:01:35.846Z,72.19
2023-05-06T05:04:04.806Z,70.93
2023-05-06T05:06:32.194Z,70.71
2023-05-06T05:08:59.832Z,69.76
2023-05-06T05:11:27.264Z,69.11
2023-05-06T05:13:56.845Z,68.87
2023-05-06T05:16:24.960Z,69.27
2023-05-06T05:18:55.311Z,70.98
2023-05-06T05:21:24.049Z,71.18
2023-05-06T05:23:51.312Z,71.93
2023-05-06T05:26:18.599Z,73.29
2023-05-06T05:28:45.870Z,73.61
2023-05-06T05:31:13.235Z,72.44
2023-05-06T05:33:40.524Z,70.82
2023-05-06T05:36:08.177Z,69.81
2023-05-06T05:38:36.892Z,69.46
2023-05-06T05:41:04.632Z,68.51
2023-05-06T05:43:35.040Z,68.55
2023-05-06T05:46:02.398Z,68.36
2023-05-06T05:48:29.862Z,68.52
2023-05-06T05:50:57.145Z,68.70
2023-05-06T05:53:24.467Z,68.36
2023-05-06T05:55:54.093Z,68.57
2023-05-06T05:58:21.521Z,67.29
2023-05-06T06:00:48.848Z,65.53
2023-05-06T06:03:17.885Z,64.25
2023-05-06T06:05:45.463Z,63.38
2023-05-06T06:08:13.176Z,62.13
2023-05-06T06:10:40.473Z,60.80
2023-05-06T06:13:09.215Z,60.46
2023-05-06T06:15:36.596Z,59.56
2023-05-06T06:18:04.224Z,59.94
2023-05-06T06:20:31.633Z,59.83
2023-05-06T06:22:58.980Z,60.28
2023-05-06T06:25:26.387Z,60.55
2023-05-06T06:27:54.768Z,60.59
2023-05-06T06:30:23.610Z,59.70
2023-05-06T06:32:52.421Z,59.85
2023-05-06T06:35:20.089Z,59.08
2023-05-06T06:37:47.560Z,60.33
2023-05-06T06:40:15.476Z,59.71
2023-05-06T06:42:42.756Z,59.15
2023-05-06T06:45:11.242Z,56.55
2023-05-06T06:47:40.302Z,55.06
2023-05-06T06:50:08.725Z,53.04
2023-05-06T06:52:36.082Z,52.39
2023-05-06T06:55:03.804Z,53.29
2023-05-06T06:57:31.088Z,51.94
2023-05-06T06:59:58.404Z,50.69
2023-05-06T07:02:25.785Z,50.35
2023-05-06T07:04:54.508Z,51.21
2023-05-06T07:07:21.811Z,49.85
2023-05-06T07:09:49.107Z,45.74
2023-05-06T07:12:16.495Z,44.04
2023-05-06T07:14:43.793Z,43.70
2023-05-06T07:17:11.168Z,42.23
2023-05-06T07:19:38.548Z,40.69
2023-05-06T07:22:07.299Z,39.16
2023-05-06T07:24:34.625Z,37.37
2023-05-06T07:27:02.198Z,36.03
2023-05-06T07:29:29.601Z,34.26
2023-05-06T07:31:56.913Z,33.84
2023-05-06T07:34:24.231Z,34.25
2023-05-06T07:36:51.572Z,32.34
2023-05-06T07:39:20.268Z,32.67
2023-05-06T07:41:47.590Z,33.38
2023-05-06T07:44:14.881Z,32.49
2023-05-06T07:46:42.301Z,32.25
2023-05-06T07:49:09.777Z,30.37
2023-05-06T07:51:37.100Z,33.02
2023-05-06T07:54:04.729Z,31.40
2023-05-06T07:56:33.428Z,31.67
2023-05-06T07:59:00.759Z,31.24
2023-05-06T08:01:28.357Z,32.14
2023-05-06T08:03:55.853Z,33.49
2023-05-06T08:06:23.288Z,32.25
2023-05-06T08:08:50.580Z,31.84
2023-05-06T08:11:19.369Z,32.23
2023-05-06T08:13:48.208Z,33.36
2023-05-06T08:16:15.847Z,33.18
2023-05-06T08:18:43.158Z,33.95
2023-05-06T08:21:10.519Z,34.70
2023-05-06T08:23:37.906Z,34.79
2023-05-06T08:26:05.172Z,35.79
2023-05-06T08:28:35.487Z,35.37
2023-05-06T08:31:04.183Z,35.61
2023-05-06T08:33:31.495Z,35.42
2023-05-06T08:35:59.138Z,36.49
2023-05-06T08:38:26.843Z,37.05
2023-05-06T08:40:54.635Z,35.87
2023-05-06T08:43:22.053Z,35.47
2023-05-06T08:45:49.775Z,35.83
2023-05-06T08:48:18.690Z,36.58
2023-05-06T08:50:48.848Z,34.78
2023-05-06T08:53:16.805Z,34.66
2023-05-06T08:55:45.321Z,34.79
2023-05-06T08:58:16.305Z,35.48
2023-05-06T09:00:44.290Z,35.97
2023-05-06T09:03:11.700Z,36.12
2023-05-06T09:05:40.489Z,37.90
2023-05-06T09:08:07.831Z,38.04
2023-05-06T09:10:43.098Z,37.56
2023-05-06T09:13:12.032Z,37.80
2023-05-06T09:15:40.113Z,37.97
2023-05-06T09:18:07.816Z,37.88
2023-05-06T09:20:35.385Z,38.31
2023-05-06T09:23:04.149Z,38.51
2023-05-06T09:25:31.764Z,39.59
2023-05-06T09:28:04.505Z,39.66
2023-05-06T09:30:31.808Z,39.42
2023-05-06T09:32:59.400Z,39.32
2023-05-06T09:35:27.573Z,38.91
2023-05-06T09:37:54.880Z,39.18
2023-05-06T09:40:24.761Z,37.55
2023-05-06T09:42:52.129Z,38.14
2023-05-06T09:45:19.414Z,38.29
2023-05-06T09:47:47.050Z,37.33
2023-05-06T09:50:14.375Z,38.00
2023-05-06T09:52:45.057Z,38.25
2023-05-06T09:55:12.847Z,36.48
2023-05-06T09:57:41.829Z,37.29
2023-05-06T10:00:10.411Z,36.92
2023-05-06T10:02:40.262Z,36.21
2023-05-06T10:05:09.966Z,37.39
2023-05-06T10:07:38.642Z,36.86
2023-05-06T10:10:08.518Z,37.70
2023-05-06T10:12:36.340Z,38.37
2023-05-06T10:15:06.197Z,37.81
2023-05-06T10:17:35.241Z,37.53
2023-05-06T10:20:04.474Z,38.45
2023-05-06T10:22:41.381Z,38.94
2023-05-06T10:25:16.631Z,39.42
2023-05-06T10:27:45.379Z,39.68
2023-05-06T10:30:15.842Z,40.71
2023-05-06T10:32:45.372Z,40.68
2023-05-06T10:35:35.803Z,39.95
2023-05-06T10:38:05.004Z,40.53
2023-05-06T10:40:32.562Z,40.83
2023-05-06T10:43:23.424Z,40.10
2023-05-06T10:46:10.759Z,40.44
2023-05-06T10:48:39.603Z,40.84
2023-05-06T10:51:28.026Z,40.13
2023-05-06T10:54:00.369Z,39.61
2023-05-06T10:56:27.848Z,38.54
2023-05-06T10:58:55.196Z,39.57
2023-05-06T11:01:26.886Z,39.45
2023-05-06T11:03:54.762Z,39.77
2023-05-06T11:06:36.115Z,38.54
2023-05-06T11:09:05.229Z,38.61
2023-05-06T11:11:57.697Z,38.42
2023-05-06T11:14:27.322Z,38.43
2023-05-06T11:16:57.801Z,37.91
2023-05-06T11:19:26.964Z,37.32
2023-05-06T11:21:55.162Z,36.88
2023-05-06T11:24:24.102Z,36.65
2023-05-06T11:26:52.143Z,36.69
2023-05-06T11:29:19.834Z,36.29
2023-05-06T11:31:47.498Z,36.30
2023-05-06T11:34:23.603Z,36.46
2023-05-06T11:36:57.545Z,36.28
2023-05-06T11:39:25.594Z,36.30
2023-05-06T11:41:53.200Z,36.76
2023-05-06T11:44:31.697Z,36.39
2023-05-06T11:47:00.704Z,36.45
2023-05-06T11:49:29.644Z,36.13
2023-05-06T11:51:57.214Z,36.10
2023-05-06T11:54:26.231Z,36.30
2023-05-06T11:56:55.068Z,36.07
2023-05-06T11:59:30.613Z,35.93
2023-05-06T12:01:59.790Z,36.09
2023-05-06T12:04:27.691Z,35.93
2023-05-06T12:06:56.671Z,36.24
2023-05-06T12:09:25.038Z,36.50
2023-05-06T12:11:52.815Z,36.75
2023-05-06T12:14:20.417Z,37.77
2023-05-06T12:16:47.863Z,36.40
2023-05-06T12:19:16.815Z,35.08
2023-05-06T12:21:44.696Z,36.14
2023-05-06T12:24:13.889Z,35.75
2023-05-06T12:26:48.611Z,35.90
2023-05-06T12:29:17.106Z,36.05
2023-05-06T12:31:45.510Z,36.62
2023-05-06T12:34:13.302Z,36.74
2023-05-06T12:36:42.233Z,37.80
2023-05-06T12:39:09.654Z,37.60
2023-05-06T12:41:40.461Z,36.97
2023-05-06T12:44:30.156Z,36.79
2023-05-06T12:46:57.496Z,37.07
2023-05-06T12:49:24.922Z,37.66
2023-05-06T12:52:08.496Z,36.62
2023-05-06T12:54:36.167Z,36.51
2023-05-06T12:57:05.283Z,37.20
2023-05-06T12:59:33.074Z,35.72
2023-05-06T13:02:00.431Z,34.65
2023-05-06T13:04:27.776Z,34.38
2023-05-06T13:06:55.206Z,34.78
2023-05-06T13:09:22.952Z,34.40
2023-05-06T13:11:50.550Z,34.67
2023-05-06T13:14:19.207Z,34.10
2023-05-06T13:16:46.682Z,34.44
2023-05-06T13:19:30.713Z,33.67
2023-05-06T13:21:59.982Z,34.68
2023-05-06T13:24:27.505Z,34.33
2023-05-06T13:26:54.853Z,35.27
2023-05-06T13:29:23.848Z,35.63
2023-05-06T13:31:51.502Z,35.51
2023-05-06T13:34:19.021Z,35.92
2023-05-06T13:36:46.364Z,36.31
2023-05-06T13:39:13.684Z,35.98
2023-05-06T13:41:40.945Z,36.41
2023-05-06T13:44:08.379Z,36.24
2023-05-06T13:46:37.045Z,36.10
2023-05-06T13:49:04.391Z,35.95
2023-05-06T13:51:32.501Z,35.61
2023-05-06T13:53:59.846Z,36.64
2023-05-06T13:56:27.391Z,36.96
2023-05-06T13:58:54.819Z,37.63
2023-05-06T14:01:23.057Z,37.91
2023-05-06T14:03:52.054Z,37.87
2023-05-06T14:06:19.794Z,38.59
2023-05-06T14:08:47.398Z,38.41
2023-05-06T14:11:14.720Z,38.50
2023-05-06T14:13:42.018Z,38.59
2023-05-06T14:16:09.378Z,38.54
2023-05-06T14:18:36.785Z,37.94
2023-05-06T14:21:05.494Z,38.10
2023-05-06T14:23:32.805Z,38.53
2023-05-06T14:26:00.231Z,39.17
2023-05-06T14:28:27.581Z,39.72
2023-05-06T14:30:54.865Z,39.68
2023-05-06T14:33:22.238Z,40.03
2023-05-06T14:35:51.245Z,40.49
2023-05-06T14:38:20.037Z,39.82
2023-05-06T14:40:47.387Z,40.27
2023-05-06T14:43:14.655Z,39.68
2023-05-06T14:45:41.983Z,39.17
2023-05-06T14:48:09.317Z,40.10
2023-05-06T14:50:36.664Z,40.68
2023-05-06T14:53:04.224Z,41.24
2023-05-06T14:55:32.962Z,40.68
2023-05-06T14:58:00.241Z,41.07
2023-05-06T15:00:27.752Z,41.96
2023-05-06T15:02:55.127Z,42.24
2023-05-06T15:05:22.546Z,42.76
2023-05-06T15:07:49.873Z,41.73
2023-05-06T15:10:17.327Z,41.07
2023-05-06T15:12:46.004Z,40.40
2023-05-06T15:15:13.660Z,40.43
2023-05-06T15:17:41.087Z,40.55
2023-05-06T15:20:09.368Z,40.55
2023-05-06T15:22:39.189Z,40.91
2023-05-06T15:25:09.358Z,40.78
2023-05-06T15:27:38.112Z,40.39
2023-05-06T15:30:08.353Z,40.34
2023-05-06T15:32:35.713Z,39.79
2023-05-06T15:35:03.124Z,39.60
2023-05-06T15:37:32.096Z,39.54
2023-05-06T15:39:59.438Z,40.20
2023-05-06T15:42:26.713Z,40.02
2023-05-06T15:44:54.209Z,40.57
2023-05-06T15:47:22.877Z,41.05
2023-05-06T15:49:54.767Z,40.75
2023-05-06T15:52:22.449Z,41.20
2023-05-06T15:54:50.312Z,41.38
2023-05-06T15:57:17.858Z,41.84
2023-05-06T15:59:45.187Z,42.96
2023-05-06T16:02:26.918Z,43.16
2023-05-06T16:04:56.387Z,42.59
2023-05-06T16:07:23.867Z,42.26
2023-05-06T16:09:51.276Z,42.84
2023-05-06T16:12:18.594Z,43.56
2023-05-06T16:14:45.885Z,42.64
2023-05-06T16:17:13.191Z,43.07
2023-05-06T16:19:40.461Z,44.23
2023-05-06T16:22:09.100Z,44.00
2023-05-06T16:24:36.412Z,44.03
2023-05-06T16:27:03.760Z,44.13
2023-05-06T16:29:31.183Z,45.06
2023-05-06T16:31:58.630Z,44.55
2023-05-06T16:34:26.049Z,44.04
2023-05-06T16:36:53.409Z,43.49
2023-05-06T16:39:22.095Z,44.05
2023-05-06T16:41:49.425Z,44.59
2023-05-06T16:44:16.751Z,45.37
2023-05-06T16:46:44.148Z,45.93
2023-05-06T16:49:11.584Z,46.98
2023-05-06T16:51:38.887Z,46.82
2023-05-06T16:54:06.226Z,47.42
2023-05-06T16:56:48.218Z,47.56
2023-05-06T16:59:20.117Z,47.82
2023-05-06T17:01:49.150Z,48.10
2023-05-06T17:04:16.769Z,48.48
2023-05-06T17:06:44.101Z,48.63
2023-05-06T17:09:11.384Z,49.56
2023-05-06T17:11:40.028Z,49.46
2023-05-06T17:14:07.365Z,49.28
2023-05-06T17:16:34.755Z,49.66
2023-05-06T17:19:02.322Z,49.60
2023-05-06T17:21:29.663Z,50.42
2023-05-06T17:23:57.796Z,50.24
2023-05-06T17:26:25.189Z,50.92
2023-05-06T17:28:54.261Z,50.57
2023-05-06T17:31:21.712Z,50.18
2023-05-06T17:33:49.219Z,50.64
2023-05-06T17:36:18.574Z,50.38
2023-05-06T17:38:45.913Z,49.89
2023-05-06T17:41:13.216Z,50.60
2023-05-06T17:43:40.580Z,50.13
2023-05-06T17:46:09.391Z,49.50
2023-05-06T17:48:36.827Z,49.04
2023-05-06T17:51:04.197Z,49.66
2023-05-06T17:53:31.531Z,50.60
2023-05-06T17:55:59.093Z,50.99
2023-05-06T17:58:26.411Z,51.07
2023-05-06T18:00:53.746Z,50.87
2023-05-06T18:03:22.514Z,51.41
2023-05-06T18:05:49.886Z,51.71
2023-05-06T18:08:17.411Z,51.41
2023-05-06T18:10:44.788Z,51.70
2023-05-06T18:13:12.293Z,52.10
2023-05-06T18:15:39.676Z,52.11
2023-05-06T18:18:07.022Z,52.24
2023-05-06T18:20:35.708Z,53.11
2023-05-06T18:23:03.330Z,52.77
2023-05-06T18:25:30.635Z,52.23
2023-05-06T18:27:57.917Z,52.83
2023-05-06T18:30:25.261Z,53.06
2023-05-06T18:32:54.553Z,53.87
2023-05-06T18:35:23.362Z,54.73
2023-05-06T18:37:52.060Z,54.89
2023-05-06T18:40:19.451Z,54.88
2023-05-06T18:42:47.094Z,54.01
2023-05-06T18:45:14.450Z,54.17
2023-05-06T18:47:41.773Z,54.97
2023-05-06T18:50:09.572Z,55.15
2023-05-06T18:52:36.824Z,54.93
2023-05-06T18:55:06.251Z,54.17
2023-05-06T18:57:33.550Z,54.48
2023-05-06T19:00:00.838Z,54.22
2023-05-06T19:02:28.210Z,54.27
2023-05-06T19:04:55.644Z,55.34
2023-05-06T19:07:22.997Z,55.10
2023-05-06T19:09:50.348Z,54.78
2023-05-06T19:12:19.032Z,54.98
2023-05-06T19:14:46.302Z,55.26
2023-05-06T19:17:13.682Z,54.34
2023-05-06T19:19:41.073Z,54.55
2023-05-06T19:22:08.392Z,54.59
2023-05-06T19:24:35.738Z,54.89
2023-05-06T19:27:03.197Z,54.75
2023-05-06T19:29:31.890Z,54.22
2023-05-06T19:31:59.936Z,55.26
2023-05-06T19:34:27.215Z,54.71
2023-05-06T19:36:54.721Z,55.32
2023-05-06T19:39:21.978Z,55.26
2023-05-06T19:41:49.437Z,55.11
2023-05-06T19:44:16.824Z,54.93
2023-05-06T19:46:45.534Z,54.24
2023-05-06T19:49:12.820Z,54.34
2023-05-06T19:51:40.148Z,55.19
2023-05-06T19:54:07.411Z,55.37
2023-05-06T19:56:34.704Z,55.96
2023-05-06T19:59:01.994Z,56.93
2023-05-06T20:01:29.324Z,58.22
2023-05-06T20:03:58.340Z,58.36
2023-05-06T20:06:25.858Z,60.55
2023-05-06T20:08:53.121Z,60.84
2023-05-06T20:11:20.423Z,61.31
2023-05-06T20:13:47.679Z,61.04
2023-05-06T20:16:15.044Z,60.92
2023-05-06T20:18:42.361Z,61.12
2023-05-06T20:21:11.071Z,60.70
2023-05-06T20:23:38.335Z,61.62
2023-05-06T20:26:05.626Z,60.97
2023-05-06T20:28:32.998Z,60.92
2023-05-06T20:31:00.378Z,60.18
2023-05-06T20:33:27.692Z,61.33
2023-05-06T20:35:55.030Z,61.00
2023-05-06T20:38:23.970Z,61.04
2023-05-06T20:40:51.254Z,60.86
2023-05-06T20:43:18.529Z,60.92
2023-05-06T20:45:45.882Z,61.37
2023-05-06T20:48:14.995Z,62.39
2023-05-06T20:50:42.740Z,63.38
2023-05-06T20:53:10.099Z,63.86
2023-05-06T20:55:38.850Z,65.18
2023-05-06T20:58:06.183Z,65.62
2023-05-06T21:00:33.458Z,66.40
2023-05-06T21:03:01.124Z,66.17
2023-05-06T21:05:28.558Z,66.10
2023-05-06T21:07:55.864Z,66.94
2023-05-06T21:10:23.165Z,67.87
2023-05-06T21:12:51.909Z,67.92
2023-05-06T21:15:19.426Z,68.12
2023-05-06T21:17:46.850Z,67.30
2023-05-06T21:20:14.251Z,67.88
2023-05-06T21:22:41.673Z,67.80
2023-05-06T21:25:09.700Z,68.36
2023-05-06T21:27:37.132Z,67.32
2023-05-06T21:30:07.360Z,67.52
2023-05-06T21:32:34.694Z,66.40
2023-05-06T21:35:02.361Z,67.09
2023-05-06T21:37:29.675Z,67.36
2023-05-06T21:39:56.976Z,67.05
2023-05-06T21:42:24.260Z,67.14
2023-05-06T21:44:51.547Z,66.20
2023-05-06T21:47:20.238Z,65.58
2023-05-06T21:49:47.673Z,65.32
2023-05-06T21:52:15.014Z,65.47
2023-05-06T21:54:45.346Z,65.04
2023-05-06T21:57:12.681Z,65.35
2023-05-06T21:59:40.056Z,65.74
2023-05-06T22:02:07.632Z,66.08
2023-05-06T22:04:36.517Z,65.91
2023-05-06T22:07:04.026Z,65.42
2023-05-06T22:09:31.371Z,65.37
2023-05-06T22:11:58.724Z,66.72
2023-05-06T22:14:30.230Z,66.39
2023-05-06T22:17:05.823Z,66.59
2023-05-06T22:19:33.370Z,66.76
2023-05-06T22:22:02.698Z,66.09
2023-05-06T22:24:29.988Z,66.73
2023-05-06T22:26:57.572Z,66.21
2023-05-06T22:29:24.948Z,66.82
2023-05-06T22:31:52.255Z,66.50
2023-05-06T22:34:20.517Z,66.51
2023-05-06T22:36:47.782Z,66.85
2023-05-06T22:39:16.610Z,65.92
2023-05-06T22:41:43.924Z,65.13
2023-05-06T22:44:11.183Z,65.29
2023-05-06T22:46:38.471Z,65.90
2023-05-06T22:49:05.774Z,65.95
2023-05-06T22:51:33.211Z,66.05
2023-05-06T22:54:00.700Z,65.98
2023-05-06T22:56:29.402Z,65.90
2023-05-06T22:58:56.715Z,65.60
2023-05-06T23:01:24.170Z,65.77
2023-05-06T23:03:51.556Z,66.11
2023-05-06T23:06:19.118Z,65.64
2023-05-06T23:08:46.473Z,66.86
2023-05-06T23:11:13.742Z,67.98
2023-05-06T23:13:42.372Z,67.76
2023-05-06T23:16:09.673Z,66.96
2023-05-06T23:18:37.017Z,66.73
2023-05-06T23:21:04.670Z,68.13
2023-05-06T23:23:32.239Z,68.23
2023-05-06T23:25:59.722Z,69.27
2023-05-06T23:28:27.892Z,70.20
2023-05-06T23:30:56.560Z,71.17
2023-05-06T23:33:24.062Z,71.12
2023-05-06T23:35:51.392Z,71.82
2023-05-06T23:38:18.718Z,71.36
2023-05-06T23:40:46.069Z,70.42
2023-05-06T23:43:13.393Z,69.45
2023-05-06T23:45:40.718Z,70.46
2023-05-06T23:48:09.496Z,70.94
2023-05-06T23:50:36.820Z,71.66
2023-05-06T23:53:04.085Z,72.01
2023-05-06T23:55:31.647Z,71.88
2023-05-06T23:57:58.942Z,71.91
